Natathlon (1) - Lyonnais (4)

Régionale

VÉNISSIEUX

Du Samedi 11 Decembre 2004 au Dimanche 12 Decembre 2004

Bassin de 25m

800 Nage Libre Dames

Séries

Nom Année Club Pays Temps Points Niv.
1 FLATOT Charley 1992 TRITON CLUB BELLEVILLE FRA 10:34:75 877
2 TOMASICCHIO Candice 1992 EMS BRON FRA 10:58:96 796
3 EMONARD Margot 1993 ND VILLEFRANCHE-EN-BEAUJOLAIS FRA 11:03:36 782
4 LUSTIG Elsa 1992 EMS BRON FRA 11:12:21 754
5 ROCHETTE Lucie 1992 RILLIEUX NATATION FRA 11:14:34 747
6 SCHOCH Armelle 1992 ASPTT LYON FRA 11:18:11 735
7 BRACHET Cindy 1992 AC DÉCINES FRA 11:23:63 718
8 MARIS Léa 1992 EMS BRON FRA 11:27:48 706
9 CHIBI Hind 1992 EMS BRON FRA 11:35:79 681
10 TARDY Camille 1993 ND VILLEFRANCHE-EN-BEAUJOLAIS FRA 11:40:21 668
11 BURICAND Mélissa 1992 CN TARARE FRA 11:54:01 627
12 LAMAIN Anais 1992 ND VILLEFRANCHE-EN-BEAUJOLAIS FRA 11:58:99 613
13 MALHERBE Constance 1992 ASPTT LYON FRA 12:03:36 600
14 SIMON Johanna 1993 EMS BRON FRA 12:03:67 600
15 DAVIN Mélanie 1993 EMS BRON FRA 12:04:19 598
16 VEUILLET Manon 1992 ASPTT LYON FRA 12:05:12 595
17 DAILLAND Margaux 1992 VIENNE DISTRICT NATATION FRA 12:16:73 563
18 GRANGE Marie 1992 EMS BRON FRA 12:17:22 562
19 POULAIN Marine 1993 ND VILLEFRANCHE-EN-BEAUJOLAIS FRA 12:17:30 562
20 GOUAT Audrey 1992 AS CALUIRE FRA 12:21:34 551
21 ORKISZ Ania 1993 VILLEURBANNE NATATION FRA 12:23:00 546
22 JUGNIOT Natacha 1992 TRITON CLUB BELLEVILLE FRA 12:25:49 539
23 DUBOIS Marlène 1992 ND VILLEFRANCHE-EN-BEAUJOLAIS FRA 12:30:11 527
24 JEANTON Carole 1992 CHASSIEU NATATION FRA 12:30:13 527
25 JALLOT Delphine 1992 AS CALUIRE FRA 12:38:96 504
26 TYMEN Alizée 1992 SAL ST-PRIEST NATATION FRA 12:41:20 498
27 BOTRABY Nisrine 1992 AC DÉCINES FRA 12:49:79 476
28 PIETRI Léa 1993 ASPTT LYON FRA 13:03:66 442
29 MONTOYA Alice 1993 VILLEURBANNE NATATION FRA 13:03:68 442
30 MOREIRA Gwendoline 1993 SAL ST-PRIEST NATATION FRA 13:10:45 426
31 VIEUX Mathilde 1992 LYON NATATION FRA 13:16:23 412
32 RIBEIRO Mélissa 1993 CMO VÉNISSIEUX FRA 13:18:25 407
33 ZEREZ Mélanie 1992 CMO VÉNISSIEUX FRA 13:19:23 405
34 KEBBAB Farha 1992 SAL ST-PRIEST NATATION FRA 13:29:70 381
35 CARCELES Mandy 1992 SAL ST-PRIEST NATATION FRA 13:29:86 381
36 MELIH Amel 1993 AC DÉCINES FRA 13:33:55 372
37 NGO Lina 1993 ASPTT LYON FRA 13:33:73 372
38 ABRIAL Julie 1993 CMO VÉNISSIEUX FRA 13:39:76 359
39 NGUYEN-LACHAISE Alexandra 1993 VILLEURBANNE NATATION FRA 13:56:03 324
40 GHELMA Marie 1992 VIENNE DISTRICT NATATION FRA 13:57:87 320
41 NEVEU Florence 1993 ND VILLEFRANCHE-EN-BEAUJOLAIS FRA 14:02:41 311
42 POTELLE Clelia 1992 AS CALUIRE FRA 14:07:45 301
43 DEVILLERS Isaline 1992 TRITON CLUB BELLEVILLE FRA 14:10:70 294
44 BOUVIER Lauren 1992 LYON NATATION FRA 14:11:24 293
45 MASSON Cyrielle 1992 AS CALUIRE FRA 14:11:41 293
46 SENOSIAIN Léa 1993 VIENNE DISTRICT NATATION FRA 14:11:47 293
47 COSTE Chloé 1993 ND VILLEFRANCHE-EN-BEAUJOLAIS FRA 14:16:40 283
48 BRUN Laura 1993 ND VILLEFRANCHE-EN-BEAUJOLAIS FRA 14:16:46 283
49 MATTEI Marine 1992 SAL ST-PRIEST NATATION FRA 14:18:20 280
50 CHEMINEAU Adelie 1993 AS CALUIRE FRA 14:37:81 243
51 PINQUIER Justine 1993 AC DÉCINES FRA 14:44:39 231
52 CHET Stephie 1992 ND VILLEFRANCHE-EN-BEAUJOLAIS FRA 14:54:46 214
53 PERRIN Joséphine 1993 CMO VÉNISSIEUX FRA 14:56:50 211
54 NACHAR Karen 1993 VILLEURBANNE NATATION FRA 15:02:43 201
55 DIAS Stella 1993 VILLEURBANNE NATATION FRA 15:07:09 193
56 BON Bénédicte 1993 LYON NATATION FRA - Disq.